sensor_id;sensor_type;location;lat;lon;timestamp;P1;durP1;ratioP1;P2;durP2;ratioP2
36575;SDS011;45700;50.930;5.168;2022-09-29T00:02:19;8.57;;;4.82;;
36575;SDS011;45700;50.930;5.168;2022-09-29T00:06:20;7.57;;;5.30;;
36575;SDS011;45700;50.930;5.168;2022-09-29T00:10:21;9.60;;;5.00;;
36575;SDS011;45700;50.930;5.168;2022-09-29T00:14:22;10.15;;;5.25;;
36575;SDS011;45700;50.930;5.168;2022-09-29T00:18:23;6.80;;;4.93;;
36575;SDS011;45700;50.930;5.168;2022-09-29T00:22:24;8.40;;;5.30;;
36575;SDS011;45700;50.930;5.168;2022-09-29T00:26:25;8.10;;;5.40;;
36575;SDS011;45700;50.930;5.168;2022-09-29T00:30:26;9.82;;;5.00;;
36575;SDS011;45700;50.930;5.168;2022-09-29T00:34:27;9.57;;;5.32;;
36575;SDS011;45700;50.930;5.168;2022-09-29T00:38:29;10.77;;;5.35;;
36575;SDS011;45700;50.930;5.168;2022-09-29T00:42:30;10.77;;;5.72;;
36575;SDS011;45700;50.930;5.168;2022-09-29T00:46:32;8.45;;;4.72;;
36575;SDS011;45700;50.930;5.168;2022-09-29T00:54:38;9.35;;;5.75;;
36575;SDS011;45700;50.930;5.168;2022-09-29T01:02:43;8.70;;;5.40;;
36575;SDS011;45700;50.930;5.168;2022-09-29T01:06:50;10.80;;;5.47;;
36575;SDS011;45700;50.930;5.168;2022-09-29T01:10:51;9.75;;;5.88;;
36575;SDS011;45700;50.930;5.168;2022-09-29T01:14:53;6.35;;;4.60;;
36575;SDS011;45700;50.930;5.168;2022-09-29T01:18:54;8.00;;;5.18;;
36575;SDS011;45700;50.930;5.168;2022-09-29T01:31:25;10.20;;;5.88;;
36575;SDS011;45700;50.930;5.168;2022-09-29T01:39:45;9.30;;;5.47;;
36575;SDS011;45700;50.930;5.168;2022-09-29T01:43:49;8.82;;;5.20;;
36575;SDS011;45700;50.930;5.168;2022-09-29T01:47:55;11.93;;;6.40;;
36575;SDS011;45700;50.930;5.168;2022-09-29T01:52:02;14.13;;;7.38;;
36575;SDS011;45700;50.930;5.168;2022-09-29T01:56:08;21.13;;;7.80;;
36575;SDS011;45700;50.930;5.168;2022-09-29T02:00:13;23.98;;;8.13;;
36575;SDS011;45700;50.930;5.168;2022-09-29T02:04:17;18.00;;;7.35;;
36575;SDS011;45700;50.930;5.168;2022-09-29T02:12:24;13.95;;;6.88;;
36575;SDS011;45700;50.930;5.168;2022-09-29T02:16:30;15.50;;;7.05;;
36575;SDS011;45700;50.930;5.168;2022-09-29T02:20:31;21.10;;;7.75;;
36575;SDS011;45700;50.930;5.168;2022-09-29T02:24:32;16.33;;;8.05;;
36575;SDS011;45700;50.930;5.168;2022-09-29T02:28:34;17.08;;;7.18;;
36575;SDS011;45700;50.930;5.168;2022-09-29T02:32:35;13.02;;;6.65;;
36575;SDS011;45700;50.930;5.168;2022-09-29T02:40:46;11.02;;;6.10;;
36575;SDS011;45700;50.930;5.168;2022-09-29T02:44:53;9.43;;;5.20;;
36575;SDS011;45700;50.930;5.168;2022-09-29T02:57:31;10.95;;;5.03;;
36575;SDS011;45700;50.930;5.168;2022-09-29T03:01:38;10.85;;;5.47;;
36575;SDS011;45700;50.930;5.168;2022-09-29T03:05:40;16.70;;;6.60;;
36575;SDS011;45700;50.930;5.168;2022-09-29T03:09:41;17.80;;;6.63;;
36575;SDS011;45700;50.930;5.168;2022-09-29T03:13:43;19.80;;;7.63;;
36575;SDS011;45700;50.930;5.168;2022-09-29T03:17:44;14.57;;;6.30;;
36575;SDS011;45700;50.930;5.168;2022-09-29T03:21:45;13.77;;;6.05;;
36575;SDS011;45700;50.930;5.168;2022-09-29T03:25:46;15.00;;;6.00;;
36575;SDS011;45700;50.930;5.168;2022-09-29T03:29:47;14.55;;;5.95;;
36575;SDS011;45700;50.930;5.168;2022-09-29T03:33:49;13.48;;;6.25;;
36575;SDS011;45700;50.930;5.168;2022-09-29T03:37:50;12.05;;;6.50;;
36575;SDS011;45700;50.930;5.168;2022-09-29T03:41:52;10.25;;;5.63;;
36575;SDS011;45700;50.930;5.168;2022-09-29T03:45:53;10.85;;;5.70;;
36575;SDS011;45700;50.930;5.168;2022-09-29T03:49:55;9.82;;;5.50;;
36575;SDS011;45700;50.930;5.168;2022-09-29T03:53:56;9.48;;;4.78;;
36575;SDS011;45700;50.930;5.168;2022-09-29T03:57:57;8.15;;;4.75;;
36575;SDS011;45700;50.930;5.168;2022-09-29T04:01:58;8.57;;;4.57;;
36575;SDS011;45700;50.930;5.168;2022-09-29T04:05:59;8.80;;;4.90;;
36575;SDS011;45700;50.930;5.168;2022-09-29T04:10:00;8.05;;;4.93;;
36575;SDS011;45700;50.930;5.168;2022-09-29T04:14:01;9.05;;;4.70;;
36575;SDS011;45700;50.930;5.168;2022-09-29T04:18:03;7.68;;;4.45;;
36575;SDS011;45700;50.930;5.168;2022-09-29T04:22:04;8.02;;;4.65;;
36575;SDS011;45700;50.930;5.168;2022-09-29T04:26:05;7.93;;;4.93;;
36575;SDS011;45700;50.930;5.168;2022-09-29T04:30:07;9.55;;;4.47;;
36575;SDS011;45700;50.930;5.168;2022-09-29T04:34:08;8.13;;;4.43;;
36575;SDS011;45700;50.930;5.168;2022-09-29T04:38:09;5.00;;;3.58;;
36575;SDS011;45700;50.930;5.168;2022-09-29T04:42:10;9.23;;;5.07;;
36575;SDS011;45700;50.930;5.168;2022-09-29T04:46:11;8.30;;;5.45;;
36575;SDS011;45700;50.930;5.168;2022-09-29T04:50:13;7.95;;;4.45;;
36575;SDS011;45700;50.930;5.168;2022-09-29T04:54:14;9.18;;;4.60;;
36575;SDS011;45700;50.930;5.168;2022-09-29T04:58:16;7.55;;;4.70;;
36575;SDS011;45700;50.930;5.168;2022-09-29T05:02:17;9.82;;;4.88;;
36575;SDS011;45700;50.930;5.168;2022-09-29T05:06:18;9.07;;;4.80;;
36575;SDS011;45700;50.930;5.168;2022-09-29T05:10:19;8.02;;;4.95;;
36575;SDS011;45700;50.930;5.168;2022-09-29T05:14:20;7.03;;;4.72;;
36575;SDS011;45700;50.930;5.168;2022-09-29T05:18:21;8.80;;;4.60;;
36575;SDS011;45700;50.930;5.168;2022-09-29T05:22:22;9.07;;;4.82;;
36575;SDS011;45700;50.930;5.168;2022-09-29T05:26:24;9.20;;;5.05;;
36575;SDS011;45700;50.930;5.168;2022-09-29T05:30:25;8.18;;;4.97;;
36575;SDS011;45700;50.930;5.168;2022-09-29T05:34:26;9.38;;;5.07;;
36575;SDS011;45700;50.930;5.168;2022-09-29T05:38:27;8.18;;;5.03;;
36575;SDS011;45700;50.930;5.168;2022-09-29T05:42:29;8.23;;;4.85;;
36575;SDS011;45700;50.930;5.168;2022-09-29T05:46:31;9.50;;;4.80;;
36575;SDS011;45700;50.930;5.168;2022-09-29T05:50:33;9.95;;;5.75;;
36575;SDS011;45700;50.930;5.168;2022-09-29T05:54:43;9.77;;;5.13;;
36575;SDS011;45700;50.930;5.168;2022-09-29T05:58:44;9.40;;;5.88;;
36575;SDS011;45700;50.930;5.168;2022-09-29T06:02:45;11.07;;;5.68;;
36575;SDS011;45700;50.930;5.168;2022-09-29T06:06:46;9.82;;;5.75;;
36575;SDS011;45700;50.930;5.168;2022-09-29T06:10:47;7.85;;;4.95;;
36575;SDS011;45700;50.930;5.168;2022-09-29T06:14:48;8.65;;;4.40;;
36575;SDS011;45700;50.930;5.168;2022-09-29T06:18:49;7.93;;;5.10;;
36575;SDS011;45700;50.930;5.168;2022-09-29T06:22:54;10.68;;;5.20;;
36575;SDS011;45700;50.930;5.168;2022-09-29T06:26:55;8.95;;;5.03;;
36575;SDS011;45700;50.930;5.168;2022-09-29T06:30:59;9.23;;;4.88;;
36575;SDS011;45700;50.930;5.168;2022-09-29T06:35:02;10.35;;;5.78;;
36575;SDS011;45700;50.930;5.168;2022-09-29T06:43:22;10.20;;;5.35;;
36575;SDS011;45700;50.930;5.168;2022-09-29T06:47:23;7.43;;;4.55;;
36575;SDS011;45700;50.930;5.168;2022-09-29T06:51:24;10.43;;;5.25;;
36575;SDS011;45700;50.930;5.168;2022-09-29T06:55:25;7.53;;;5.10;;
36575;SDS011;45700;50.930;5.168;2022-09-29T06:59:27;7.28;;;4.78;;
36575;SDS011;45700;50.930;5.168;2022-09-29T07:03:28;9.90;;;5.50;;
36575;SDS011;45700;50.930;5.168;2022-09-29T07:07:29;9.63;;;5.47;;
36575;SDS011;45700;50.930;5.168;2022-09-29T07:11:30;8.73;;;5.22;;
36575;SDS011;45700;50.930;5.168;2022-09-29T07:15:31;8.52;;;4.82;;
36575;SDS011;45700;50.930;5.168;2022-09-29T07:19:32;7.55;;;4.75;;
36575;SDS011;45700;50.930;5.168;2022-09-29T07:23:33;7.93;;;4.75;;
36575;SDS011;45700;50.930;5.168;2022-09-29T07:27:34;9.13;;;4.82;;
36575;SDS011;45700;50.930;5.168;2022-09-29T07:31:35;8.90;;;3.85;;
36575;SDS011;45700;50.930;5.168;2022-09-29T07:35:36;8.23;;;3.95;;
36575;SDS011;45700;50.930;5.168;2022-09-29T07:39:37;8.35;;;4.00;;
36575;SDS011;45700;50.930;5.168;2022-09-29T07:43:39;6.28;;;3.95;;
36575;SDS011;45700;50.930;5.168;2022-09-29T07:47:40;6.07;;;3.38;;
36575;SDS011;45700;50.930;5.168;2022-09-29T07:51:41;8.30;;;3.92;;
36575;SDS011;45700;50.930;5.168;2022-09-29T07:55:42;13.70;;;4.93;;
36575;SDS011;45700;50.930;5.168;2022-09-29T07:59:43;6.82;;;3.40;;
36575;SDS011;45700;50.930;5.168;2022-09-29T08:03:47;6.50;;;3.42;;
36575;SDS011;45700;50.930;5.168;2022-09-29T08:07:52;8.40;;;4.15;;
36575;SDS011;45700;50.930;5.168;2022-09-29T08:11:53;4.97;;;3.22;;
36575;SDS011;45700;50.930;5.168;2022-09-29T08:16:00;6.57;;;3.35;;
36575;SDS011;45700;50.930;5.168;2022-09-29T08:20:02;10.10;;;4.07;;
36575;SDS011;45700;50.930;5.168;2022-09-29T08:24:03;9.57;;;3.70;;
36575;SDS011;45700;50.930;5.168;2022-09-29T08:28:04;6.32;;;3.72;;
36575;SDS011;45700;50.930;5.168;2022-09-29T08:32:05;7.82;;;4.35;;
36575;SDS011;45700;50.930;5.168;2022-09-29T08:36:07;5.68;;;3.33;;
36575;SDS011;45700;50.930;5.168;2022-09-29T08:40:13;8.02;;;3.67;;
36575;SDS011;45700;50.930;5.168;2022-09-29T08:48:17;9.07;;;3.55;;
36575;SDS011;45700;50.930;5.168;2022-09-29T08:52:41;5.88;;;3.05;;
36575;SDS011;45700;50.930;5.168;2022-09-29T08:56:40;8.00;;;3.30;;
36575;SDS011;45700;50.930;5.168;2022-09-29T09:21:35;5.63;;;3.30;;
36575;SDS011;45700;50.930;5.168;2022-09-29T09:25:53;4.35;;;2.78;;
36575;SDS011;45700;50.930;5.168;2022-09-29T09:30:00;3.97;;;2.25;;
36575;SDS011;45700;50.930;5.168;2022-09-29T09:34:04;3.88;;;2.53;;
36575;SDS011;45700;50.930;5.168;2022-09-29T09:42:37;3.03;;;2.33;;
36575;SDS011;45700;50.930;5.168;2022-09-29T09:46:44;5.00;;;2.50;;
36575;SDS011;45700;50.930;5.168;2022-09-29T09:50:47;5.15;;;2.60;;
36575;SDS011;45700;50.930;5.168;2022-09-29T09:54:50;4.07;;;2.25;;
36575;SDS011;45700;50.930;5.168;2022-09-29T10:02:54;3.35;;;2.10;;
36575;SDS011;45700;50.930;5.168;2022-09-29T10:06:56;3.88;;;2.53;;
36575;SDS011;45700;50.930;5.168;2022-09-29T10:10:58;7.25;;;2.47;;
36575;SDS011;45700;50.930;5.168;2022-09-29T10:15:03;2.92;;;1.90;;
36575;SDS011;45700;50.930;5.168;2022-09-29T10:19:05;4.45;;;2.50;;
36575;SDS011;45700;50.930;5.168;2022-09-29T10:27:25;4.60;;;2.65;;
36575;SDS011;45700;50.930;5.168;2022-09-29T10:31:28;6.25;;;2.63;;
36575;SDS011;45700;50.930;5.168;2022-09-29T10:35:34;3.97;;;2.20;;
36575;SDS011;45700;50.930;5.168;2022-09-29T10:39:40;5.45;;;2.75;;
36575;SDS011;45700;50.930;5.168;2022-09-29T10:43:42;3.85;;;2.35;;
36575;SDS011;45700;50.930;5.168;2022-09-29T10:47:45;5.53;;;3.33;;
36575;SDS011;45700;50.930;5.168;2022-09-29T10:51:50;5.97;;;2.83;;
36575;SDS011;45700;50.930;5.168;2022-09-29T10:55:54;4.32;;;2.47;;
36575;SDS011;45700;50.930;5.168;2022-09-29T10:59:56;3.22;;;2.30;;
36575;SDS011;45700;50.930;5.168;2022-09-29T11:03:58;4.32;;;2.60;;
36575;SDS011;45700;50.930;5.168;2022-09-29T11:08:02;3.17;;;2.15;;
36575;SDS011;45700;50.930;5.168;2022-09-29T11:12:04;3.97;;;1.73;;
36575;SDS011;45700;50.930;5.168;2022-09-29T11:16:27;5.82;;;3.10;;
36575;SDS011;45700;50.930;5.168;2022-09-29T11:20:27;4.07;;;2.38;;
36575;SDS011;45700;50.930;5.168;2022-09-29T11:24:37;3.05;;;1.52;;
36575;SDS011;45700;50.930;5.168;2022-09-29T11:36:53;2.70;;;1.80;;
36575;SDS011;45700;50.930;5.168;2022-09-29T11:45:02;4.57;;;1.77;;
36575;SDS011;45700;50.930;5.168;2022-09-29T11:49:30;5.50;;;1.65;;
36575;SDS011;45700;50.930;5.168;2022-09-29T11:53:34;4.40;;;1.58;;
36575;SDS011;45700;50.930;5.168;2022-09-29T12:13:54;3.95;;;2.17;;
36575;SDS011;45700;50.930;5.168;2022-09-29T12:17:58;3.85;;;2.30;;
36575;SDS011;45700;50.930;5.168;2022-09-29T12:22:02;3.75;;;2.15;;
36575;SDS011;45700;50.930;5.168;2022-09-29T12:26:08;5.38;;;2.03;;
36575;SDS011;45700;50.930;5.168;2022-09-29T12:30:13;3.17;;;2.08;;
36575;SDS011;45700;50.930;5.168;2022-09-29T12:34:25;3.50;;;2.00;;
36575;SDS011;45700;50.930;5.168;2022-09-29T12:38:36;5.15;;;2.22;;
36575;SDS011;45700;50.930;5.168;2022-09-29T12:42:42;2.92;;;1.70;;
36575;SDS011;45700;50.930;5.168;2022-09-29T12:50:49;1.95;;;1.48;;
36575;SDS011;45700;50.930;5.168;2022-09-29T12:54:51;2.60;;;1.90;;
36575;SDS011;45700;50.930;5.168;2022-09-29T12:59:12;2.40;;;1.80;;
36575;SDS011;45700;50.930;5.168;2022-09-29T13:12:22;2.40;;;1.48;;
36575;SDS011;45700;50.930;5.168;2022-09-29T13:28:44;2.13;;;1.50;;
36575;SDS011;45700;50.930;5.168;2022-09-29T13:32:49;2.08;;;1.30;;
36575;SDS011;45700;50.930;5.168;2022-09-29T13:36:50;2.22;;;1.20;;
36575;SDS011;45700;50.930;5.168;2022-09-29T13:41:09;3.60;;;1.60;;
36575;SDS011;45700;50.930;5.168;2022-09-29T13:49:27;3.65;;;1.60;;
36575;SDS011;45700;50.930;5.168;2022-09-29T13:53:35;2.45;;;1.48;;
36575;SDS011;45700;50.930;5.168;2022-09-29T13:57:38;1.70;;;1.20;;
36575;SDS011;45700;50.930;5.168;2022-09-29T14:01:50;2.83;;;1.23;;
36575;SDS011;45700;50.930;5.168;2022-09-29T14:05:52;1.70;;;1.20;;
36575;SDS011;45700;50.930;5.168;2022-09-29T14:09:54;3.38;;;1.08;;
36575;SDS011;45700;50.930;5.168;2022-09-29T14:14:00;1.73;;;0.95;;
36575;SDS011;45700;50.930;5.168;2022-09-29T14:18:03;2.15;;;1.10;;
36575;SDS011;45700;50.930;5.168;2022-09-29T14:26:43;1.67;;;1.13;;
36575;SDS011;45700;50.930;5.168;2022-09-29T14:30:46;2.05;;;1.30;;
36575;SDS011;45700;50.930;5.168;2022-09-29T14:34:49;2.30;;;1.70;;
36575;SDS011;45700;50.930;5.168;2022-09-29T14:38:53;2.70;;;1.48;;
36575;SDS011;45700;50.930;5.168;2022-09-29T14:43:05;2.50;;;1.30;;
36575;SDS011;45700;50.930;5.168;2022-09-29T14:47:14;2.25;;;0.98;;
36575;SDS011;45700;50.930;5.168;2022-09-29T14:52:00;1.88;;;1.02;;
36575;SDS011;45700;50.930;5.168;2022-09-29T15:00:16;2.55;;;1.00;;
36575;SDS011;45700;50.930;5.168;2022-09-29T15:08:25;3.60;;;1.52;;
36575;SDS011;45700;50.930;5.168;2022-09-29T15:12:28;3.05;;;1.23;;
36575;SDS011;45700;50.930;5.168;2022-09-29T15:20:58;2.78;;;0.93;;
36575;SDS011;45700;50.930;5.168;2022-09-29T15:25:09;2.25;;;0.95;;
36575;SDS011;45700;50.930;5.168;2022-09-29T15:29:15;3.30;;;0.90;;
36575;SDS011;45700;50.930;5.168;2022-09-29T15:33:26;1.88;;;0.90;;
36575;SDS011;45700;50.930;5.168;2022-09-29T15:37:52;1.80;;;1.20;;
36575;SDS011;45700;50.930;5.168;2022-09-29T15:42:00;2.03;;;1.08;;
36575;SDS011;45700;50.930;5.168;2022-09-29T15:46:17;3.83;;;1.60;;
36575;SDS011;45700;50.930;5.168;2022-09-29T15:50:22;3.63;;;2.65;;
36575;SDS011;45700;50.930;5.168;2022-09-29T15:54:28;3.30;;;3.00;;
36575;SDS011;45700;50.930;5.168;2022-09-29T15:58:33;4.50;;;2.75;;
36575;SDS011;45700;50.930;5.168;2022-09-29T16:02:37;5.65;;;2.83;;
36575;SDS011;45700;50.930;5.168;2022-09-29T16:06:39;8.90;;;4.78;;
36575;SDS011;45700;50.930;5.168;2022-09-29T16:10:53;9.73;;;4.80;;
36575;SDS011;45700;50.930;5.168;2022-09-29T16:14:55;9.35;;;4.30;;
36575;SDS011;45700;50.930;5.168;2022-09-29T16:18:58;7.28;;;3.70;;
36575;SDS011;45700;50.930;5.168;2022-09-29T16:32:29;6.63;;;3.72;;
36575;SDS011;45700;50.930;5.168;2022-09-29T16:36:18;6.20;;;3.38;;
36575;SDS011;45700;50.930;5.168;2022-09-29T16:40:20;5.15;;;2.20;;
36575;SDS011;45700;50.930;5.168;2022-09-29T16:44:25;2.92;;;2.10;;
36575;SDS011;45700;50.930;5.168;2022-09-29T16:48:28;5.65;;;3.15;;
36575;SDS011;45700;50.930;5.168;2022-09-29T16:52:34;2.85;;;1.85;;
36575;SDS011;45700;50.930;5.168;2022-09-29T16:56:40;3.47;;;1.73;;
36575;SDS011;45700;50.930;5.168;2022-09-29T17:00:43;4.28;;;2.35;;
36575;SDS011;45700;50.930;5.168;2022-09-29T17:04:46;5.43;;;2.40;;
36575;SDS011;45700;50.930;5.168;2022-09-29T17:08:46;3.78;;;2.10;;
36575;SDS011;45700;50.930;5.168;2022-09-29T17:12:47;5.30;;;2.20;;
36575;SDS011;45700;50.930;5.168;2022-09-29T17:16:49;2.53;;;1.42;;
36575;SDS011;45700;50.930;5.168;2022-09-29T17:20:50;6.28;;;3.17;;
36575;SDS011;45700;50.930;5.168;2022-09-29T17:24:51;6.10;;;3.70;;
36575;SDS011;45700;50.930;5.168;2022-09-29T17:28:52;7.28;;;3.50;;
36575;SDS011;45700;50.930;5.168;2022-09-29T17:32:54;8.65;;;4.15;;
36575;SDS011;45700;50.930;5.168;2022-09-29T17:36:56;12.38;;;4.85;;
36575;SDS011;45700;50.930;5.168;2022-09-29T17:40:59;7.20;;;3.85;;
36575;SDS011;45700;50.930;5.168;2022-09-29T17:45:03;6.93;;;3.47;;
36575;SDS011;45700;50.930;5.168;2022-09-29T17:49:07;8.95;;;4.68;;
36575;SDS011;45700;50.930;5.168;2022-09-29T17:53:09;8.85;;;3.97;;
36575;SDS011;45700;50.930;5.168;2022-09-29T17:57:20;9.57;;;4.90;;
36575;SDS011;45700;50.930;5.168;2022-09-29T18:01:23;9.32;;;5.05;;
36575;SDS011;45700;50.930;5.168;2022-09-29T18:05:26;8.85;;;3.85;;
36575;SDS011;45700;50.930;5.168;2022-09-29T18:09:27;5.40;;;3.38;;
36575;SDS011;45700;50.930;5.168;2022-09-29T18:13:29;8.75;;;3.47;;
36575;SDS011;45700;50.930;5.168;2022-09-29T18:17:33;7.63;;;3.10;;
36575;SDS011;45700;50.930;5.168;2022-09-29T18:21:34;5.97;;;3.03;;
36575;SDS011;45700;50.930;5.168;2022-09-29T18:25:35;6.28;;;3.17;;
36575;SDS011;45700;50.930;5.168;2022-09-29T18:29:36;5.57;;;3.00;;
36575;SDS011;45700;50.930;5.168;2022-09-29T18:33:37;5.10;;;2.83;;
36575;SDS011;45700;50.930;5.168;2022-09-29T18:37:38;8.90;;;3.97;;
36575;SDS011;45700;50.930;5.168;2022-09-29T18:41:39;7.30;;;3.95;;
36575;SDS011;45700;50.930;5.168;2022-09-29T18:45:40;7.18;;;4.47;;
36575;SDS011;45700;50.930;5.168;2022-09-29T18:49:42;7.47;;;4.53;;
36575;SDS011;45700;50.930;5.168;2022-09-29T18:53:43;11.25;;;5.88;;
36575;SDS011;45700;50.930;5.168;2022-09-29T18:57:45;14.00;;;6.60;;
36575;SDS011;45700;50.930;5.168;2022-09-29T19:01:46;14.32;;;4.95;;
36575;SDS011;45700;50.930;5.168;2022-09-29T19:05:47;15.07;;;6.20;;
36575;SDS011;45700;50.930;5.168;2022-09-29T19:09:48;12.02;;;5.22;;
36575;SDS011;45700;50.930;5.168;2022-09-29T19:13:49;10.57;;;4.78;;
36575;SDS011;45700;50.930;5.168;2022-09-29T19:17:53;14.70;;;5.25;;
36575;SDS011;45700;50.930;5.168;2022-09-29T19:21:55;10.68;;;4.78;;
36575;SDS011;45700;50.930;5.168;2022-09-29T19:25:56;9.32;;;5.13;;
36575;SDS011;45700;50.930;5.168;2022-09-29T19:29:57;10.50;;;5.53;;
36575;SDS011;45700;50.930;5.168;2022-09-29T19:34:00;9.05;;;4.90;;
36575;SDS011;45700;50.930;5.168;2022-09-29T19:38:01;9.25;;;4.65;;
36575;SDS011;45700;50.930;5.168;2022-09-29T19:42:02;9.27;;;5.07;;
36575;SDS011;45700;50.930;5.168;2022-09-29T19:46:09;9.73;;;5.22;;
36575;SDS011;45700;50.930;5.168;2022-09-29T19:50:10;9.70;;;4.97;;
36575;SDS011;45700;50.930;5.168;2022-09-29T19:54:32;9.50;;;4.20;;
36575;SDS011;45700;50.930;5.168;2022-09-29T19:58:33;8.27;;;4.32;;
36575;SDS011;45700;50.930;5.168;2022-09-29T20:02:35;9.27;;;4.35;;
36575;SDS011;45700;50.930;5.168;2022-09-29T20:06:37;6.70;;;4.15;;
36575;SDS011;45700;50.930;5.168;2022-09-29T20:10:38;6.68;;;4.40;;
36575;SDS011;45700;50.930;5.168;2022-09-29T20:14:40;9.13;;;4.15;;
36575;SDS011;45700;50.930;5.168;2022-09-29T20:18:41;5.72;;;4.00;;
36575;SDS011;45700;50.930;5.168;2022-09-29T20:22:43;7.30;;;3.60;;
36575;SDS011;45700;50.930;5.168;2022-09-29T20:26:44;8.63;;;4.85;;
36575;SDS011;45700;50.930;5.168;2022-09-29T20:30:46;7.35;;;4.03;;
36575;SDS011;45700;50.930;5.168;2022-09-29T20:34:47;7.13;;;3.63;;
36575;SDS011;45700;50.930;5.168;2022-09-29T20:38:48;6.65;;;3.80;;
36575;SDS011;45700;50.930;5.168;2022-09-29T20:42:49;7.88;;;4.78;;
36575;SDS011;45700;50.930;5.168;2022-09-29T20:46:52;6.95;;;3.92;;
36575;SDS011;45700;50.930;5.168;2022-09-29T20:50:53;7.35;;;4.78;;
36575;SDS011;45700;50.930;5.168;2022-09-29T20:54:54;7.90;;;4.00;;
36575;SDS011;45700;50.930;5.168;2022-09-29T20:58:58;9.18;;;4.82;;
36575;SDS011;45700;50.930;5.168;2022-09-29T21:02:59;10.68;;;5.07;;
36575;SDS011;45700;50.930;5.168;2022-09-29T21:07:00;9.48;;;4.95;;
36575;SDS011;45700;50.930;5.168;2022-09-29T21:11:02;7.68;;;4.10;;
36575;SDS011;45700;50.930;5.168;2022-09-29T21:15:04;8.20;;;4.25;;
36575;SDS011;45700;50.930;5.168;2022-09-29T21:19:06;8.05;;;4.13;;
36575;SDS011;45700;50.930;5.168;2022-09-29T21:23:07;8.38;;;4.10;;
36575;SDS011;45700;50.930;5.168;2022-09-29T21:27:08;8.80;;;4.68;;
36575;SDS011;45700;50.930;5.168;2022-09-29T21:31:11;7.93;;;4.40;;
36575;SDS011;45700;50.930;5.168;2022-09-29T21:35:13;6.50;;;4.38;;
36575;SDS011;45700;50.930;5.168;2022-09-29T21:39:13;10.85;;;5.10;;
36575;SDS011;45700;50.930;5.168;2022-09-29T21:43:15;6.82;;;4.68;;
36575;SDS011;45700;50.930;5.168;2022-09-29T21:47:16;8.75;;;4.68;;
36575;SDS011;45700;50.930;5.168;2022-09-29T21:51:41;6.85;;;4.72;;
36575;SDS011;45700;50.930;5.168;2022-09-29T21:55:42;6.97;;;4.63;;
36575;SDS011;45700;50.930;5.168;2022-09-29T21:59:43;8.20;;;4.90;;
36575;SDS011;45700;50.930;5.168;2022-09-29T22:03:45;9.80;;;5.30;;
36575;SDS011;45700;50.930;5.168;2022-09-29T22:07:47;7.20;;;4.50;;
36575;SDS011;45700;50.930;5.168;2022-09-29T22:11:48;8.43;;;5.40;;
36575;SDS011;45700;50.930;5.168;2022-09-29T22:15:50;7.25;;;4.75;;
36575;SDS011;45700;50.930;5.168;2022-09-29T22:19:51;7.75;;;4.68;;
36575;SDS011;45700;50.930;5.168;2022-09-29T22:23:53;6.93;;;4.50;;
36575;SDS011;45700;50.930;5.168;2022-09-29T22:27:54;8.68;;;5.20;;
36575;SDS011;45700;50.930;5.168;2022-09-29T22:31:55;5.72;;;4.40;;
36575;SDS011;45700;50.930;5.168;2022-09-29T22:35:56;8.25;;;5.28;;
36575;SDS011;45700;50.930;5.168;2022-09-29T22:39:57;7.07;;;5.18;;
36575;SDS011;45700;50.930;5.168;2022-09-29T22:43:58;7.75;;;4.72;;
36575;SDS011;45700;50.930;5.168;2022-09-29T22:47:59;8.63;;;5.25;;
36575;SDS011;45700;50.930;5.168;2022-09-29T22:52:01;8.30;;;5.05;;
36575;SDS011;45700;50.930;5.168;2022-09-29T22:56:07;9.13;;;5.13;;
36575;SDS011;45700;50.930;5.168;2022-09-29T23:00:09;8.82;;;5.93;;
36575;SDS011;45700;50.930;5.168;2022-09-29T23:04:10;8.50;;;5.50;;
36575;SDS011;45700;50.930;5.168;2022-09-29T23:08:11;7.70;;;5.30;;
36575;SDS011;45700;50.930;5.168;2022-09-29T23:12:12;6.97;;;4.72;;
36575;SDS011;45700;50.930;5.168;2022-09-29T23:16:14;8.77;;;4.80;;
36575;SDS011;45700;50.930;5.168;2022-09-29T23:20:15;8.43;;;5.22;;
36575;SDS011;45700;50.930;5.168;2022-09-29T23:24:16;8.50;;;5.30;;
36575;SDS011;45700;50.930;5.168;2022-09-29T23:28:19;7.60;;;5.20;;
36575;SDS011;45700;50.930;5.168;2022-09-29T23:32:20;9.25;;;5.28;;
36575;SDS011;45700;50.930;5.168;2022-09-29T23:36:22;6.18;;;4.95;;
36575;SDS011;45700;50.930;5.168;2022-09-29T23:40:23;8.20;;;5.53;;
36575;SDS011;45700;50.930;5.168;2022-09-29T23:44:25;8.30;;;5.32;;
36575;SDS011;45700;50.930;5.168;2022-09-29T23:48:26;7.13;;;5.13;;
36575;SDS011;45700;50.930;5.168;2022-09-29T23:52:29;10.50;;;5.63;;
36575;SDS011;45700;50.930;5.168;2022-09-29T23:56:30;7.05;;;5.25;;
